Dresslerville, Nevada
Current Conditions -  °F | °C
As of 11:35 PM on Friday 28 Nov 2014 (Local Time) from KMEV Reporting Station
Clear Clear  
Wind Chill: 50°   Ceiling: Unl
Heat Index: 50°   Visibility: 10mi
Dew Point:   Wind: 7mph
Humidity: 19%   Direction: 350°N
Pressure: 29.85"   Gusts: NA
Location:  38.9417°N, 119.681°W
Report Text: KMEV 290735Z AUTO 35006KT 10SM CLR 10/M13 A2985 RMK AO2
Loading
Personal Weather Stations






























Interactive Weather Map New forecast layout! Learn more

10-Day Weather Forecast

Advertisements
Track Severe Weather on mobile